sensor_id;sensor_type;location;lat;lon;timestamp;P1;durP1;ratioP1;P2;durP2;ratioP2
17520;SDS011;8878;-33.370;-70.552;2022-07-22T00:00:38;23.17;;;9.00;;
17520;SDS011;8878;-33.370;-70.552;2022-07-22T00:03:10;15.13;;;8.47;;
17520;SDS011;8878;-33.370;-70.552;2022-07-22T00:05:39;17.23;;;9.10;;
17520;SDS011;8878;-33.370;-70.552;2022-07-22T00:08:09;24.67;;;10.57;;
17520;SDS011;8878;-33.370;-70.552;2022-07-22T00:10:38;15.53;;;7.73;;
17520;SDS011;8878;-33.370;-70.552;2022-07-22T00:13:08;21.07;;;7.90;;
17520;SDS011;8878;-33.370;-70.552;2022-07-22T00:15:38;17.57;;;7.27;;
17520;SDS011;8878;-33.370;-70.552;2022-07-22T00:18:07;18.67;;;9.07;;
17520;SDS011;8878;-33.370;-70.552;2022-07-22T00:20:38;25.30;;;7.17;;
17520;SDS011;8878;-33.370;-70.552;2022-07-22T00:23:08;18.63;;;7.07;;
17520;SDS011;8878;-33.370;-70.552;2022-07-22T00:25:38;14.87;;;7.73;;
17520;SDS011;8878;-33.370;-70.552;2022-07-22T00:28:07;12.03;;;6.60;;
17520;SDS011;8878;-33.370;-70.552;2022-07-22T00:30:37;15.07;;;6.63;;
17520;SDS011;8878;-33.370;-70.552;2022-07-22T00:33:07;18.63;;;8.40;;
17520;SDS011;8878;-33.370;-70.552;2022-07-22T00:35:38;10.70;;;6.37;;
17520;SDS011;8878;-33.370;-70.552;2022-07-22T00:38:07;21.03;;;7.90;;
17520;SDS011;8878;-33.370;-70.552;2022-07-22T00:40:36;34.63;;;9.73;;
17520;SDS011;8878;-33.370;-70.552;2022-07-22T00:43:06;16.30;;;8.67;;
17520;SDS011;8878;-33.370;-70.552;2022-07-22T00:45:35;16.27;;;7.87;;
17520;SDS011;8878;-33.370;-70.552;2022-07-22T00:48:05;22.70;;;8.63;;
17520;SDS011;8878;-33.370;-70.552;2022-07-22T00:50:37;21.03;;;9.40;;
17520;SDS011;8878;-33.370;-70.552;2022-07-22T00:53:07;28.03;;;7.97;;
17520;SDS011;8878;-33.370;-70.552;2022-07-22T00:55:37;12.47;;;6.53;;
17520;SDS011;8878;-33.370;-70.552;2022-07-22T00:58:07;23.40;;;8.00;;
17520;SDS011;8878;-33.370;-70.552;2022-07-22T01:00:36;14.43;;;7.70;;
17520;SDS011;8878;-33.370;-70.552;2022-07-22T01:03:06;30.40;;;9.23;;
17520;SDS011;8878;-33.370;-70.552;2022-07-22T01:05:37;17.40;;;7.00;;
17520;SDS011;8878;-33.370;-70.552;2022-07-22T01:08:06;15.03;;;9.13;;
17520;SDS011;8878;-33.370;-70.552;2022-07-22T01:10:36;22.30;;;9.73;;
17520;SDS011;8878;-33.370;-70.552;2022-07-22T01:13:06;24.30;;;7.03;;
17520;SDS011;8878;-33.370;-70.552;2022-07-22T01:15:36;11.57;;;8.57;;
17520;SDS011;8878;-33.370;-70.552;2022-07-22T01:18:05;20.97;;;10.17;;
17520;SDS011;8878;-33.370;-70.552;2022-07-22T01:20:37;14.33;;;7.03;;
17520;SDS011;8878;-33.370;-70.552;2022-07-22T01:23:06;12.23;;;7.07;;
17520;SDS011;8878;-33.370;-70.552;2022-07-22T01:25:36;26.90;;;6.60;;
17520;SDS011;8878;-33.370;-70.552;2022-07-22T01:28:06;17.13;;;7.60;;
17520;SDS011;8878;-33.370;-70.552;2022-07-22T01:30:35;19.33;;;7.23;;
17520;SDS011;8878;-33.370;-70.552;2022-07-22T01:33:05;12.27;;;7.00;;
17520;SDS011;8878;-33.370;-70.552;2022-07-22T01:35:36;13.30;;;5.33;;
17520;SDS011;8878;-33.370;-70.552;2022-07-22T01:38:06;16.77;;;8.37;;
17520;SDS011;8878;-33.370;-70.552;2022-07-22T01:40:37;23.77;;;9.17;;
17520;SDS011;8878;-33.370;-70.552;2022-07-22T01:43:06;9.07;;;5.80;;
17520;SDS011;8878;-33.370;-70.552;2022-07-22T01:45:36;12.60;;;7.43;;
17520;SDS011;8878;-33.370;-70.552;2022-07-22T01:48:06;16.73;;;7.93;;
17520;SDS011;8878;-33.370;-70.552;2022-07-22T01:50:37;17.03;;;6.90;;
17520;SDS011;8878;-33.370;-70.552;2022-07-22T01:53:07;21.63;;;7.10;;
17520;SDS011;8878;-33.370;-70.552;2022-07-22T01:55:37;8.20;;;5.70;;
17520;SDS011;8878;-33.370;-70.552;2022-07-22T01:58:07;20.63;;;7.03;;
17520;SDS011;8878;-33.370;-70.552;2022-07-22T02:00:36;16.30;;;6.93;;
17520;SDS011;8878;-33.370;-70.552;2022-07-22T02:03:06;14.47;;;6.43;;
17520;SDS011;8878;-33.370;-70.552;2022-07-22T02:05:38;11.27;;;6.23;;
17520;SDS011;8878;-33.370;-70.552;2022-07-22T02:08:11;14.07;;;6.27;;
17520;SDS011;8878;-33.370;-70.552;2022-07-22T02:10:41;18.47;;;6.37;;
17520;SDS011;8878;-33.370;-70.552;2022-07-22T02:13:12;11.77;;;6.80;;
17520;SDS011;8878;-33.370;-70.552;2022-07-22T02:15:42;15.87;;;7.97;;
17520;SDS011;8878;-33.370;-70.552;2022-07-22T02:18:11;13.37;;;6.03;;
17520;SDS011;8878;-33.370;-70.552;2022-07-22T02:20:44;12.90;;;6.77;;
17520;SDS011;8878;-33.370;-70.552;2022-07-22T02:23:14;11.67;;;6.73;;
17520;SDS011;8878;-33.370;-70.552;2022-07-22T02:25:44;9.10;;;5.87;;
17520;SDS011;8878;-33.370;-70.552;2022-07-22T02:28:13;15.83;;;7.10;;
17520;SDS011;8878;-33.370;-70.552;2022-07-22T02:30:43;18.57;;;8.53;;
17520;SDS011;8878;-33.370;-70.552;2022-07-22T02:33:13;13.67;;;7.57;;
17520;SDS011;8878;-33.370;-70.552;2022-07-22T02:35:44;14.53;;;6.50;;
17520;SDS011;8878;-33.370;-70.552;2022-07-22T02:38:14;19.57;;;7.53;;
17520;SDS011;8878;-33.370;-70.552;2022-07-22T02:40:43;14.10;;;6.40;;
17520;SDS011;8878;-33.370;-70.552;2022-07-22T02:43:13;16.17;;;7.47;;
17520;SDS011;8878;-33.370;-70.552;2022-07-22T02:45:42;22.67;;;9.70;;
17520;SDS011;8878;-33.370;-70.552;2022-07-22T02:48:12;17.40;;;6.80;;
17520;SDS011;8878;-33.370;-70.552;2022-07-22T02:50:46;18.63;;;8.90;;
17520;SDS011;8878;-33.370;-70.552;2022-07-22T02:53:16;8.03;;;6.07;;
17520;SDS011;8878;-33.370;-70.552;2022-07-22T02:55:45;19.57;;;7.10;;
17520;SDS011;8878;-33.370;-70.552;2022-07-22T02:58:15;17.80;;;6.70;;
17520;SDS011;8878;-33.370;-70.552;2022-07-22T03:00:44;13.50;;;7.30;;
17520;SDS011;8878;-33.370;-70.552;2022-07-22T03:03:14;17.60;;;7.80;;
17520;SDS011;8878;-33.370;-70.552;2022-07-22T03:05:43;23.87;;;5.93;;
17520;SDS011;8878;-33.370;-70.552;2022-07-22T03:08:14;15.23;;;6.20;;
17520;SDS011;8878;-33.370;-70.552;2022-07-22T03:10:44;13.63;;;6.57;;
17520;SDS011;8878;-33.370;-70.552;2022-07-22T03:13:13;19.00;;;6.70;;
17520;SDS011;8878;-33.370;-70.552;2022-07-22T03:15:43;10.83;;;5.50;;
17520;SDS011;8878;-33.370;-70.552;2022-07-22T03:18:12;10.20;;;5.33;;
17520;SDS011;8878;-33.370;-70.552;2022-07-22T03:20:42;12.90;;;6.13;;
17520;SDS011;8878;-33.370;-70.552;2022-07-22T03:23:13;12.97;;;6.20;;
17520;SDS011;8878;-33.370;-70.552;2022-07-22T03:25:42;6.97;;;4.23;;
17520;SDS011;8878;-33.370;-70.552;2022-07-22T03:28:12;10.67;;;4.60;;
17520;SDS011;8878;-33.370;-70.552;2022-07-22T03:30:41;12.17;;;6.27;;
17520;SDS011;8878;-33.370;-70.552;2022-07-22T03:33:11;12.23;;;5.80;;
17520;SDS011;8878;-33.370;-70.552;2022-07-22T03:35:40;13.43;;;5.70;;
17520;SDS011;8878;-33.370;-70.552;2022-07-22T03:38:10;24.20;;;7.37;;
17520;SDS011;8878;-33.370;-70.552;2022-07-22T03:40:41;13.50;;;6.13;;
17520;SDS011;8878;-33.370;-70.552;2022-07-22T03:43:11;11.97;;;6.97;;
17520;SDS011;8878;-33.370;-70.552;2022-07-22T03:45:40;12.43;;;6.13;;
17520;SDS011;8878;-33.370;-70.552;2022-07-22T03:48:10;10.93;;;6.33;;
17520;SDS011;8878;-33.370;-70.552;2022-07-22T03:50:40;18.70;;;8.10;;
17520;SDS011;8878;-33.370;-70.552;2022-07-22T03:53:09;13.93;;;5.50;;
17520;SDS011;8878;-33.370;-70.552;2022-07-22T03:55:39;20.77;;;7.87;;
17520;SDS011;8878;-33.370;-70.552;2022-07-22T03:58:10;22.53;;;6.60;;
17520;SDS011;8878;-33.370;-70.552;2022-07-22T04:00:39;10.00;;;5.53;;
17520;SDS011;8878;-33.370;-70.552;2022-07-22T04:03:09;22.27;;;5.73;;
17520;SDS011;8878;-33.370;-70.552;2022-07-22T04:05:38;16.90;;;7.43;;
17520;SDS011;8878;-33.370;-70.552;2022-07-22T04:08:09;9.07;;;4.90;;
17520;SDS011;8878;-33.370;-70.552;2022-07-22T04:10:38;26.13;;;5.60;;
17520;SDS011;8878;-33.370;-70.552;2022-07-22T04:13:10;14.63;;;4.60;;
17520;SDS011;8878;-33.370;-70.552;2022-07-22T04:15:39;17.23;;;7.87;;
17520;SDS011;8878;-33.370;-70.552;2022-07-22T04:18:09;5.83;;;4.90;;
17520;SDS011;8878;-33.370;-70.552;2022-07-22T04:20:38;6.63;;;4.63;;
17520;SDS011;8878;-33.370;-70.552;2022-07-22T04:23:08;13.17;;;5.37;;
17520;SDS011;8878;-33.370;-70.552;2022-07-22T04:25:38;13.93;;;5.27;;
17520;SDS011;8878;-33.370;-70.552;2022-07-22T04:28:09;6.77;;;6.07;;
17520;SDS011;8878;-33.370;-70.552;2022-07-22T04:30:39;8.73;;;5.27;;
17520;SDS011;8878;-33.370;-70.552;2022-07-22T04:33:08;13.37;;;6.53;;
17520;SDS011;8878;-33.370;-70.552;2022-07-22T04:35:38;13.03;;;5.60;;
17520;SDS011;8878;-33.370;-70.552;2022-07-22T04:38:07;19.20;;;6.43;;
17520;SDS011;8878;-33.370;-70.552;2022-07-22T04:40:37;12.17;;;5.90;;
17520;SDS011;8878;-33.370;-70.552;2022-07-22T04:43:06;15.20;;;5.70;;
17520;SDS011;8878;-33.370;-70.552;2022-07-22T04:45:38;10.57;;;4.53;;
17520;SDS011;8878;-33.370;-70.552;2022-07-22T04:48:07;9.60;;;5.97;;
17520;SDS011;8878;-33.370;-70.552;2022-07-22T04:50:37;13.53;;;5.97;;
17520;SDS011;8878;-33.370;-70.552;2022-07-22T04:53:06;16.93;;;6.73;;
17520;SDS011;8878;-33.370;-70.552;2022-07-22T04:55:36;21.80;;;6.10;;
17520;SDS011;8878;-33.370;-70.552;2022-07-22T04:58:06;24.87;;;6.23;;
17520;SDS011;8878;-33.370;-70.552;2022-07-22T05:00:37;20.07;;;5.37;;
17520;SDS011;8878;-33.370;-70.552;2022-07-22T05:03:06;18.07;;;6.97;;
17520;SDS011;8878;-33.370;-70.552;2022-07-22T05:05:36;24.63;;;7.20;;
17520;SDS011;8878;-33.370;-70.552;2022-07-22T05:08:05;26.43;;;7.93;;
17520;SDS011;8878;-33.370;-70.552;2022-07-22T05:10:35;11.97;;;5.93;;
17520;SDS011;8878;-33.370;-70.552;2022-07-22T05:13:04;18.40;;;7.30;;
17520;SDS011;8878;-33.370;-70.552;2022-07-22T05:15:34;20.93;;;5.83;;
17520;SDS011;8878;-33.370;-70.552;2022-07-22T05:18:05;10.83;;;5.10;;
17520;SDS011;8878;-33.370;-70.552;2022-07-22T05:20:35;8.37;;;3.70;;
17520;SDS011;8878;-33.370;-70.552;2022-07-22T05:23:05;7.03;;;5.17;;
17520;SDS011;8878;-33.370;-70.552;2022-07-22T05:25:34;13.53;;;7.63;;
17520;SDS011;8878;-33.370;-70.552;2022-07-22T05:28:04;9.13;;;4.67;;
17520;SDS011;8878;-33.370;-70.552;2022-07-22T05:30:33;10.57;;;5.23;;
17520;SDS011;8878;-33.370;-70.552;2022-07-22T05:33:05;7.90;;;4.93;;
17520;SDS011;8878;-33.370;-70.552;2022-07-22T05:35:34;7.60;;;3.70;;
17520;SDS011;8878;-33.370;-70.552;2022-07-22T05:38:04;15.83;;;6.70;;
17520;SDS011;8878;-33.370;-70.552;2022-07-22T05:40:33;9.27;;;4.20;;
17520;SDS011;8878;-33.370;-70.552;2022-07-22T05:43:03;11.40;;;3.53;;
17520;SDS011;8878;-33.370;-70.552;2022-07-22T05:45:32;21.40;;;7.97;;
17520;SDS011;8878;-33.370;-70.552;2022-07-22T05:48:02;10.17;;;5.20;;
17520;SDS011;8878;-33.370;-70.552;2022-07-22T05:50:35;6.07;;;4.73;;
17520;SDS011;8878;-33.370;-70.552;2022-07-22T05:53:05;22.40;;;6.30;;
17520;SDS011;8878;-33.370;-70.552;2022-07-22T05:55:34;9.43;;;5.43;;
17520;SDS011;8878;-33.370;-70.552;2022-07-22T05:58:04;14.83;;;6.37;;
17520;SDS011;8878;-33.370;-70.552;2022-07-22T06:00:33;15.77;;;7.33;;
17520;SDS011;8878;-33.370;-70.552;2022-07-22T06:03:04;12.10;;;4.50;;
17520;SDS011;8878;-33.370;-70.552;2022-07-22T06:05:34;17.47;;;4.73;;
17520;SDS011;8878;-33.370;-70.552;2022-07-22T06:08:03;12.33;;;6.00;;
17520;SDS011;8878;-33.370;-70.552;2022-07-22T06:10:33;7.80;;;4.90;;
17520;SDS011;8878;-33.370;-70.552;2022-07-22T06:13:02;17.57;;;5.27;;
17520;SDS011;8878;-33.370;-70.552;2022-07-22T06:15:32;25.13;;;6.30;;
17520;SDS011;8878;-33.370;-70.552;2022-07-22T06:18:01;16.93;;;5.50;;
17520;SDS011;8878;-33.370;-70.552;2022-07-22T06:20:33;11.20;;;3.73;;
17520;SDS011;8878;-33.370;-70.552;2022-07-22T06:23:02;12.33;;;4.57;;
17520;SDS011;8878;-33.370;-70.552;2022-07-22T06:25:32;15.23;;;4.70;;
17520;SDS011;8878;-33.370;-70.552;2022-07-22T06:28:01;12.63;;;4.23;;
17520;SDS011;8878;-33.370;-70.552;2022-07-22T06:30:31;18.73;;;4.70;;
17520;SDS011;8878;-33.370;-70.552;2022-07-22T06:33:00;16.30;;;5.50;;
17520;SDS011;8878;-33.370;-70.552;2022-07-22T06:35:32;11.13;;;5.33;;
17520;SDS011;8878;-33.370;-70.552;2022-07-22T06:38:01;8.33;;;5.57;;
17520;SDS011;8878;-33.370;-70.552;2022-07-22T06:40:31;16.37;;;7.27;;
17520;SDS011;8878;-33.370;-70.552;2022-07-22T06:43:01;11.37;;;4.47;;
17520;SDS011;8878;-33.370;-70.552;2022-07-22T06:45:31;14.87;;;7.77;;
17520;SDS011;8878;-33.370;-70.552;2022-07-22T06:48:01;17.13;;;5.90;;
17520;SDS011;8878;-33.370;-70.552;2022-07-22T06:50:32;15.20;;;4.70;;
17520;SDS011;8878;-33.370;-70.552;2022-07-22T06:53:02;27.57;;;5.83;;
17520;SDS011;8878;-33.370;-70.552;2022-07-22T06:55:32;14.40;;;6.17;;
17520;SDS011;8878;-33.370;-70.552;2022-07-22T06:58:01;16.33;;;6.60;;
17520;SDS011;8878;-33.370;-70.552;2022-07-22T07:00:30;17.57;;;8.83;;
17520;SDS011;8878;-33.370;-70.552;2022-07-22T07:03:01;14.27;;;6.17;;
17520;SDS011;8878;-33.370;-70.552;2022-07-22T07:05:32;23.23;;;6.37;;
17520;SDS011;8878;-33.370;-70.552;2022-07-22T07:08:02;7.57;;;4.77;;
17520;SDS011;8878;-33.370;-70.552;2022-07-22T07:10:32;9.97;;;4.17;;
17520;SDS011;8878;-33.370;-70.552;2022-07-22T07:13:01;9.03;;;5.03;;
17520;SDS011;8878;-33.370;-70.552;2022-07-22T07:15:31;12.80;;;6.87;;
17520;SDS011;8878;-33.370;-70.552;2022-07-22T07:18:00;15.00;;;6.53;;
17520;SDS011;8878;-33.370;-70.552;2022-07-22T07:20:29;12.63;;;5.00;;
17520;SDS011;8878;-33.370;-70.552;2022-07-22T07:23:01;13.40;;;5.80;;
17520;SDS011;8878;-33.370;-70.552;2022-07-22T07:25:31;17.40;;;4.50;;
17520;SDS011;8878;-33.370;-70.552;2022-07-22T07:28:01;11.47;;;4.33;;
17520;SDS011;8878;-33.370;-70.552;2022-07-22T07:30:30;8.60;;;4.30;;
17520;SDS011;8878;-33.370;-70.552;2022-07-22T07:33:00;9.17;;;4.90;;
17520;SDS011;8878;-33.370;-70.552;2022-07-22T07:35:30;6.43;;;4.50;;
17520;SDS011;8878;-33.370;-70.552;2022-07-22T07:38:01;16.27;;;5.10;;
17520;SDS011;8878;-33.370;-70.552;2022-07-22T07:40:31;13.10;;;5.77;;
17520;SDS011;8878;-33.370;-70.552;2022-07-22T07:43:00;17.40;;;6.30;;
17520;SDS011;8878;-33.370;-70.552;2022-07-22T07:45:30;12.13;;;4.60;;
17520;SDS011;8878;-33.370;-70.552;2022-07-22T07:48:00;7.43;;;4.57;;
17520;SDS011;8878;-33.370;-70.552;2022-07-22T07:50:32;10.80;;;5.33;;
17520;SDS011;8878;-33.370;-70.552;2022-07-22T07:53:02;11.00;;;5.57;;
17520;SDS011;8878;-33.370;-70.552;2022-07-22T07:55:31;13.87;;;6.57;;
17520;SDS011;8878;-33.370;-70.552;2022-07-22T07:58:03;9.00;;;4.20;;
17520;SDS011;8878;-33.370;-70.552;2022-07-22T08:00:32;15.60;;;5.47;;
17520;SDS011;8878;-33.370;-70.552;2022-07-22T08:03:02;10.27;;;3.43;;
17520;SDS011;8878;-33.370;-70.552;2022-07-22T08:05:34;10.40;;;4.17;;
17520;SDS011;8878;-33.370;-70.552;2022-07-22T08:08:05;7.67;;;3.77;;
17520;SDS011;8878;-33.370;-70.552;2022-07-22T08:10:35;8.03;;;4.70;;
17520;SDS011;8878;-33.370;-70.552;2022-07-22T08:13:05;5.77;;;3.37;;
17520;SDS011;8878;-33.370;-70.552;2022-07-22T08:15:34;4.23;;;3.83;;
17520;SDS011;8878;-33.370;-70.552;2022-07-22T08:18:04;14.50;;;6.03;;
17520;SDS011;8878;-33.370;-70.552;2022-07-22T08:20:35;7.60;;;2.53;;
17520;SDS011;8878;-33.370;-70.552;2022-07-22T08:23:05;7.60;;;3.23;;
17520;SDS011;8878;-33.370;-70.552;2022-07-22T08:25:34;3.60;;;3.20;;
17520;SDS011;8878;-33.370;-70.552;2022-07-22T08:28:04;9.43;;;3.43;;
17520;SDS011;8878;-33.370;-70.552;2022-07-22T08:30:33;4.30;;;3.90;;
17520;SDS011;8878;-33.370;-70.552;2022-07-22T08:33:03;6.50;;;4.17;;
17520;SDS011;8878;-33.370;-70.552;2022-07-22T08:35:32;4.33;;;2.97;;
17520;SDS011;8878;-33.370;-70.552;2022-07-22T08:38:04;10.03;;;4.27;;
17520;SDS011;8878;-33.370;-70.552;2022-07-22T08:40:33;14.50;;;4.57;;
17520;SDS011;8878;-33.370;-70.552;2022-07-22T08:43:02;4.93;;;3.00;;
17520;SDS011;8878;-33.370;-70.552;2022-07-22T08:45:32;8.43;;;3.03;;
17520;SDS011;8878;-33.370;-70.552;2022-07-22T08:48:02;5.70;;;4.10;;
17520;SDS011;8878;-33.370;-70.552;2022-07-22T08:50:32;4.07;;;3.50;;
17520;SDS011;8878;-33.370;-70.552;2022-07-22T08:53:03;6.23;;;2.80;;
17520;SDS011;8878;-33.370;-70.552;2022-07-22T08:55:32;4.53;;;3.03;;
17520;SDS011;8878;-33.370;-70.552;2022-07-22T08:58:03;16.40;;;4.30;;
17520;SDS011;8878;-33.370;-70.552;2022-07-22T09:00:32;9.03;;;4.20;;
17520;SDS011;8878;-33.370;-70.552;2022-07-22T09:03:04;11.20;;;4.50;;
17520;SDS011;8878;-33.370;-70.552;2022-07-22T09:05:46;8.50;;;3.67;;
17520;SDS011;8878;-33.370;-70.552;2022-07-22T09:08:17;6.10;;;3.33;;
17520;SDS011;8878;-33.370;-70.552;2022-07-22T09:10:47;6.87;;;3.37;;
17520;SDS011;8878;-33.370;-70.552;2022-07-22T09:13:17;12.60;;;4.50;;
17520;SDS011;8878;-33.370;-70.552;2022-07-22T09:15:47;7.27;;;4.13;;
17520;SDS011;8878;-33.370;-70.552;2022-07-22T09:18:17;9.47;;;3.47;;
17520;SDS011;8878;-33.370;-70.552;2022-07-22T09:20:47;9.80;;;4.00;;
17520;SDS011;8878;-33.370;-70.552;2022-07-22T09:23:18;4.53;;;3.70;;
17520;SDS011;8878;-33.370;-70.552;2022-07-22T09:25:50;8.20;;;2.43;;
17520;SDS011;8878;-33.370;-70.552;2022-07-22T09:28:21;5.93;;;3.47;;
17520;SDS011;8878;-33.370;-70.552;2022-07-22T09:30:52;6.37;;;4.03;;
17520;SDS011;8878;-33.370;-70.552;2022-07-22T09:33:22;5.60;;;3.50;;
17520;SDS011;8878;-33.370;-70.552;2022-07-22T09:35:52;7.57;;;3.63;;
17520;SDS011;8878;-33.370;-70.552;2022-07-22T09:38:32;20.70;;;3.53;;
17520;SDS011;8878;-33.370;-70.552;2022-07-22T09:41:01;4.73;;;2.23;;
17520;SDS011;8878;-33.370;-70.552;2022-07-22T09:43:35;6.87;;;3.87;;
17520;SDS011;8878;-33.370;-70.552;2022-07-22T09:46:05;7.30;;;3.67;;
17520;SDS011;8878;-33.370;-70.552;2022-07-22T09:48:35;4.97;;;2.47;;
17520;SDS011;8878;-33.370;-70.552;2022-07-22T09:51:06;8.13;;;2.83;;
17520;SDS011;8878;-33.370;-70.552;2022-07-22T09:53:37;4.60;;;2.70;;
17520;SDS011;8878;-33.370;-70.552;2022-07-22T09:56:07;5.47;;;3.10;;
17520;SDS011;8878;-33.370;-70.552;2022-07-22T09:58:37;4.30;;;2.60;;
17520;SDS011;8878;-33.370;-70.552;2022-07-22T10:01:07;7.60;;;3.07;;
17520;SDS011;8878;-33.370;-70.552;2022-07-22T10:03:36;5.57;;;3.03;;
17520;SDS011;8878;-33.370;-70.552;2022-07-22T10:06:08;3.17;;;2.83;;
17520;SDS011;8878;-33.370;-70.552;2022-07-22T10:08:39;3.57;;;2.40;;
17520;SDS011;8878;-33.370;-70.552;2022-07-22T10:11:10;3.60;;;2.70;;
17520;SDS011;8878;-33.370;-70.552;2022-07-22T10:13:40;8.60;;;4.50;;
17520;SDS011;8878;-33.370;-70.552;2022-07-22T10:16:12;8.07;;;2.80;;
17520;SDS011;8878;-33.370;-70.552;2022-07-22T10:18:44;8.70;;;2.60;;
17520;SDS011;8878;-33.370;-70.552;2022-07-22T10:21:14;4.23;;;3.27;;
17520;SDS011;8878;-33.370;-70.552;2022-07-22T10:26:46;5.40;;;1.70;;
17520;SDS011;8878;-33.370;-70.552;2022-07-22T10:29:29;9.80;;;3.63;;
17520;SDS011;8878;-33.370;-70.552;2022-07-22T10:37:53;6.50;;;2.10;;
17520;SDS011;8878;-33.370;-70.552;2022-07-22T10:40:26;7.00;;;4.00;;
17520;SDS011;8878;-33.370;-70.552;2022-07-22T10:43:08;8.23;;;3.20;;
17520;SDS011;8878;-33.370;-70.552;2022-07-22T10:45:39;17.97;;;7.73;;
17520;SDS011;8878;-33.370;-70.552;2022-07-22T10:48:19;45.43;;;22.17;;
17520;SDS011;8878;-33.370;-70.552;2022-07-22T10:50:51;15.60;;;6.23;;
17520;SDS011;8878;-33.370;-70.552;2022-07-22T10:53:42;11.33;;;5.33;;
17520;SDS011;8878;-33.370;-70.552;2022-07-22T10:56:15;11.60;;;4.60;;
17520;SDS011;8878;-33.370;-70.552;2022-07-22T10:58:50;5.80;;;2.97;;
17520;SDS011;8878;-33.370;-70.552;2022-07-22T11:01:21;10.63;;;3.20;;
17520;SDS011;8878;-33.370;-70.552;2022-07-22T11:03:53;10.73;;;4.20;;
17520;SDS011;8878;-33.370;-70.552;2022-07-22T11:06:27;10.13;;;4.07;;
17520;SDS011;8878;-33.370;-70.552;2022-07-22T11:08:57;8.73;;;5.43;;
17520;SDS011;8878;-33.370;-70.552;2022-07-22T11:11:34;7.93;;;3.97;;
17520;SDS011;8878;-33.370;-70.552;2022-07-22T11:14:15;7.23;;;3.93;;
17520;SDS011;8878;-33.370;-70.552;2022-07-22T11:16:51;9.23;;;3.83;;
17520;SDS011;8878;-33.370;-70.552;2022-07-22T11:19:22;10.67;;;4.93;;
17520;SDS011;8878;-33.370;-70.552;2022-07-22T11:21:54;14.80;;;5.70;;
17520;SDS011;8878;-33.370;-70.552;2022-07-22T11:24:25;15.30;;;7.20;;
17520;SDS011;8878;-33.370;-70.552;2022-07-22T11:26:57;17.60;;;6.60;;
17520;SDS011;8878;-33.370;-70.552;2022-07-22T11:29:28;12.47;;;6.27;;
17520;SDS011;8878;-33.370;-70.552;2022-07-22T11:32:00;11.77;;;4.93;;
17520;SDS011;8878;-33.370;-70.552;2022-07-22T11:34:31;12.87;;;4.77;;
17520;SDS011;8878;-33.370;-70.552;2022-07-22T11:37:03;13.17;;;5.30;;
17520;SDS011;8878;-33.370;-70.552;2022-07-22T11:39:34;9.07;;;3.87;;
17520;SDS011;8878;-33.370;-70.552;2022-07-22T11:42:05;7.93;;;5.03;;
17520;SDS011;8878;-33.370;-70.552;2022-07-22T11:44:35;8.23;;;4.43;;
17520;SDS011;8878;-33.370;-70.552;2022-07-22T11:47:06;8.53;;;4.90;;
17520;SDS011;8878;-33.370;-70.552;2022-07-22T11:49:38;12.47;;;4.47;;
17520;SDS011;8878;-33.370;-70.552;2022-07-22T11:52:08;3.07;;;2.80;;
17520;SDS011;8878;-33.370;-70.552;2022-07-22T11:54:39;9.30;;;3.47;;
17520;SDS011;8878;-33.370;-70.552;2022-07-22T11:57:12;1.77;;;1.23;;
17520;SDS011;8878;-33.370;-70.552;2022-07-22T11:59:42;12.90;;;2.87;;
17520;SDS011;8878;-33.370;-70.552;2022-07-22T12:02:12;3.17;;;2.93;;
17520;SDS011;8878;-33.370;-70.552;2022-07-22T12:04:42;7.80;;;2.17;;
17520;SDS011;8878;-33.370;-70.552;2022-07-22T12:07:14;5.77;;;2.70;;
17520;SDS011;8878;-33.370;-70.552;2022-07-22T12:09:44;5.43;;;3.07;;
17520;SDS011;8878;-33.370;-70.552;2022-07-22T12:12:16;7.43;;;3.47;;
17520;SDS011;8878;-33.370;-70.552;2022-07-22T12:14:46;21.90;;;2.97;;
17520;SDS011;8878;-33.370;-70.552;2022-07-22T12:17:15;2.30;;;2.10;;
17520;SDS011;8878;-33.370;-70.552;2022-07-22T12:19:45;5.30;;;2.53;;
17520;SDS011;8878;-33.370;-70.552;2022-07-22T12:22:19;2.97;;;2.63;;
17520;SDS011;8878;-33.370;-70.552;2022-07-22T12:24:57;4.73;;;2.87;;
17520;SDS011;8878;-33.370;-70.552;2022-07-22T12:27:30;2.27;;;1.83;;
17520;SDS011;8878;-33.370;-70.552;2022-07-22T12:29:59;2.97;;;2.60;;
17520;SDS011;8878;-33.370;-70.552;2022-07-22T12:32:39;5.40;;;2.57;;
17520;SDS011;8878;-33.370;-70.552;2022-07-22T12:35:15;3.80;;;2.13;;
17520;SDS011;8878;-33.370;-70.552;2022-07-22T12:37:45;2.20;;;1.87;;
17520;SDS011;8878;-33.370;-70.552;2022-07-22T12:40:17;7.03;;;2.63;;
17520;SDS011;8878;-33.370;-70.552;2022-07-22T12:43:01;5.03;;;2.13;;
17520;SDS011;8878;-33.370;-70.552;2022-07-22T12:45:32;7.53;;;2.47;;
17520;SDS011;8878;-33.370;-70.552;2022-07-22T12:48:06;5.27;;;1.10;;
17520;SDS011;8878;-33.370;-70.552;2022-07-22T12:50:37;4.97;;;2.70;;
17520;SDS011;8878;-33.370;-70.552;2022-07-22T12:53:08;2.80;;;1.53;;
17520;SDS011;8878;-33.370;-70.552;2022-07-22T12:55:39;5.93;;;2.37;;
17520;SDS011;8878;-33.370;-70.552;2022-07-22T12:58:12;8.93;;;2.57;;
17520;SDS011;8878;-33.370;-70.552;2022-07-22T13:00:43;8.10;;;1.87;;
17520;SDS011;8878;-33.370;-70.552;2022-07-22T13:03:13;15.40;;;2.40;;
17520;SDS011;8878;-33.370;-70.552;2022-07-22T13:05:44;12.70;;;3.53;;
17520;SDS011;8878;-33.370;-70.552;2022-07-22T13:08:15;4.47;;;2.50;;
17520;SDS011;8878;-33.370;-70.552;2022-07-22T13:10:45;2.20;;;2.03;;
17520;SDS011;8878;-33.370;-70.552;2022-07-22T13:13:16;7.60;;;3.13;;
17520;SDS011;8878;-33.370;-70.552;2022-07-22T13:15:45;3.83;;;2.07;;
17520;SDS011;8878;-33.370;-70.552;2022-07-22T13:18:15;9.53;;;2.13;;
17520;SDS011;8878;-33.370;-70.552;2022-07-22T13:20:45;14.80;;;5.63;;
17520;SDS011;8878;-33.370;-70.552;2022-07-22T13:23:15;15.93;;;4.00;;
17520;SDS011;8878;-33.370;-70.552;2022-07-22T13:25:44;7.90;;;3.43;;
17520;SDS011;8878;-33.370;-70.552;2022-07-22T13:28:14;3.33;;;2.33;;
17520;SDS011;8878;-33.370;-70.552;2022-07-22T13:30:45;7.97;;;2.77;;
17520;SDS011;8878;-33.370;-70.552;2022-07-22T13:33:15;10.73;;;3.53;;
17520;SDS011;8878;-33.370;-70.552;2022-07-22T13:35:44;7.90;;;4.57;;
17520;SDS011;8878;-33.370;-70.552;2022-07-22T13:38:14;3.00;;;2.03;;
17520;SDS011;8878;-33.370;-70.552;2022-07-22T13:40:44;13.37;;;2.50;;
17520;SDS011;8878;-33.370;-70.552;2022-07-22T13:43:19;12.67;;;3.20;;
17520;SDS011;8878;-33.370;-70.552;2022-07-22T13:45:49;9.13;;;3.33;;
17520;SDS011;8878;-33.370;-70.552;2022-07-22T13:48:19;6.83;;;4.57;;
17520;SDS011;8878;-33.370;-70.552;2022-07-22T13:50:48;10.70;;;3.80;;
17520;SDS011;8878;-33.370;-70.552;2022-07-22T13:53:18;17.17;;;3.93;;
17520;SDS011;8878;-33.370;-70.552;2022-07-22T13:55:47;14.27;;;3.87;;
17520;SDS011;8878;-33.370;-70.552;2022-07-22T13:58:19;5.20;;;2.77;;
17520;SDS011;8878;-33.370;-70.552;2022-07-22T14:00:48;16.67;;;5.07;;
17520;SDS011;8878;-33.370;-70.552;2022-07-22T14:03:18;11.90;;;6.70;;
17520;SDS011;8878;-33.370;-70.552;2022-07-22T14:05:47;12.20;;;4.90;;
17520;SDS011;8878;-33.370;-70.552;2022-07-22T14:08:17;16.60;;;5.33;;
17520;SDS011;8878;-33.370;-70.552;2022-07-22T14:10:46;19.90;;;6.43;;
17520;SDS011;8878;-33.370;-70.552;2022-07-22T14:13:16;13.33;;;5.93;;
17520;SDS011;8878;-33.370;-70.552;2022-07-22T14:15:47;16.20;;;4.97;;
17520;SDS011;8878;-33.370;-70.552;2022-07-22T14:18:16;10.60;;;6.90;;
17520;SDS011;8878;-33.370;-70.552;2022-07-22T14:20:46;15.53;;;6.63;;
17520;SDS011;8878;-33.370;-70.552;2022-07-22T14:23:16;20.07;;;6.73;;
17520;SDS011;8878;-33.370;-70.552;2022-07-22T14:25:49;10.63;;;5.40;;
17520;SDS011;8878;-33.370;-70.552;2022-07-22T14:28:20;10.93;;;5.60;;
17520;SDS011;8878;-33.370;-70.552;2022-07-22T14:30:49;12.60;;;6.70;;
17520;SDS011;8878;-33.370;-70.552;2022-07-22T14:33:19;22.23;;;6.37;;
17520;SDS011;8878;-33.370;-70.552;2022-07-22T14:35:48;8.37;;;6.37;;
17520;SDS011;8878;-33.370;-70.552;2022-07-22T14:38:18;13.83;;;5.57;;
17520;SDS011;8878;-33.370;-70.552;2022-07-22T14:40:47;14.77;;;6.37;;